Terminal Aerodrome Forecast
Issued by NWS

Home | Current Version | Previous Version | Text Only | Print | Product List | Glossary On
Versions: 1 2 3 4 5 6 7 8 9 10 11 12 13 14 15 16
000
FTUS42 KMLB 260500
TAFFPR
TAF
KFPR 260529Z 2606/2706 22003KT P6SM SCT100 BKN250
     FM261200 21009KT P6SM VCSH BKN030 BKN050
     FM261400 25014G21KT P6SM VCSH BKN030 BKN050 OVC120
     FM261600 27018G27KT P6SM SCT030 BKN050 BKN120
     FM270000 29013G20KT P6SM SKC=

USA.gov is the U.S. government's official web portal to all federal, state and local government web resources and services.